createdAt,value
2022-10-19T00:00:32.828Z,100.00
2022-10-19T00:02:59.467Z,100.00
2022-10-19T00:05:26.389Z,100.00
2022-10-19T00:07:52.826Z,100.00
2022-10-19T00:10:19.265Z,100.00
2022-10-19T00:12:45.683Z,100.00
2022-10-19T00:15:12.948Z,100.00
2022-10-19T00:17:39.796Z,100.00
2022-10-19T00:20:06.683Z,100.00
2022-10-19T00:22:53.291Z,100.00
2022-10-19T00:25:39.751Z,100.00
2022-10-19T00:28:26.951Z,100.00
2022-10-19T00:31:17.376Z,100.00
2022-10-19T00:34:04.059Z,100.00
2022-10-19T00:36:50.454Z,100.00
2022-10-19T00:39:19.282Z,100.00
2022-10-19T00:41:46.989Z,100.00
2022-10-19T00:44:13.779Z,100.00
2022-10-19T00:46:43.695Z,100.00
2022-10-19T00:49:20.008Z,100.00
2022-10-19T00:51:56.290Z,100.00
2022-10-19T00:54:23.979Z,100.00
2022-10-19T00:56:53.726Z,100.00
2022-10-19T00:59:22.687Z,100.00
2022-10-19T01:01:50.041Z,100.00
2022-10-19T01:04:16.771Z,100.00
2022-10-19T01:06:43.377Z,100.00
2022-10-19T01:09:10.377Z,100.00
2022-10-19T01:11:55.884Z,100.00
2022-10-19T01:14:28.312Z,100.00
2022-10-19T01:17:22.315Z,100.00
2022-10-19T01:20:26.484Z,100.00
2022-10-19T01:23:16.841Z,100.00
2022-10-19T01:26:23.565Z,100.00
2022-10-19T01:29:15.293Z,100.00
2022-10-19T01:32:11.612Z,100.00
2022-10-19T01:34:48.090Z,100.00
2022-10-19T01:37:31.445Z,100.00
2022-10-19T01:40:07.872Z,100.00
2022-10-19T01:42:51.523Z,100.00
2022-10-19T01:45:23.028Z,100.00
2022-10-19T01:48:05.055Z,100.00
2022-10-19T01:50:38.290Z,100.00
2022-10-19T01:53:08.094Z,100.00
2022-10-19T01:55:37.526Z,100.00
2022-10-19T01:58:09.690Z,100.00
2022-10-19T02:00:40.904Z,100.00
2022-10-19T02:03:10.277Z,100.00
2022-10-19T02:05:38.859Z,100.00
2022-10-19T02:08:13.751Z,100.00
2022-10-19T02:10:43.247Z,100.00
2022-10-19T02:13:11.155Z,100.00
2022-10-19T02:15:45.972Z,100.00
2022-10-19T02:18:15.540Z,100.00
2022-10-19T02:20:41.922Z,100.00
2022-10-19T02:23:08.983Z,100.00
2022-10-19T02:25:37.031Z,100.00
2022-10-19T02:28:05.368Z,100.00
2022-10-19T02:30:32.331Z,100.00
2022-10-19T02:32:59.595Z,100.00
2022-10-19T02:35:26.283Z,100.00
2022-10-19T02:37:53.071Z,100.00
2022-10-19T02:40:22.704Z,100.00
2022-10-19T02:42:57.255Z,100.00
2022-10-19T02:45:38.186Z,100.00
2022-10-19T02:48:13.777Z,100.00
2022-10-19T02:50:44.974Z,100.00
2022-10-19T02:53:11.447Z,100.00
2022-10-19T02:55:38.567Z,100.00
2022-10-19T02:58:05.220Z,100.00
2022-10-19T03:00:31.595Z,100.00
2022-10-19T03:02:58.398Z,100.00
2022-10-19T03:05:24.851Z,100.00
2022-10-19T03:07:52.434Z,100.00
2022-10-19T03:10:18.823Z,100.00
2022-10-19T03:12:45.887Z,100.00
2022-10-19T03:15:16.743Z,100.00
2022-10-19T03:17:43.984Z,100.00
2022-10-19T03:20:11.667Z,100.00
2022-10-19T03:22:38.865Z,100.00
2022-10-19T03:25:06.262Z,100.00
2022-10-19T03:27:32.979Z,100.00
2022-10-19T03:29:59.832Z,100.00
2022-10-19T03:32:26.497Z,100.00
2022-10-19T03:34:52.900Z,100.00
2022-10-19T03:37:19.307Z,100.00
2022-10-19T03:39:45.997Z,100.00
2022-10-19T03:42:12.371Z,100.00
2022-10-19T03:44:39.156Z,100.00
2022-10-19T03:47:05.514Z,100.00
2022-10-19T03:49:34.602Z,100.00
2022-10-19T03:52:03.580Z,100.00
2022-10-19T03:54:29.959Z,100.00
2022-10-19T03:56:56.542Z,100.00
2022-10-19T03:59:24.520Z,100.00
2022-10-19T04:01:50.982Z,100.00
2022-10-19T04:04:19.879Z,100.00
2022-10-19T04:06:48.219Z,100.00
2022-10-19T04:09:18.955Z,100.00
2022-10-19T04:11:45.988Z,100.00
2022-10-19T04:14:26.865Z,100.00
2022-10-19T04:17:03.363Z,100.00
2022-10-19T04:19:30.535Z,100.00
2022-10-19T04:21:57.689Z,100.00
2022-10-19T04:24:24.147Z,100.00
2022-10-19T04:26:53.761Z,100.00
2022-10-19T04:29:26.288Z,100.00
2022-10-19T04:31:56.186Z,100.00
2022-10-19T04:34:22.670Z,100.00
2022-10-19T04:36:49.618Z,100.00
2022-10-19T04:39:16.088Z,100.00
2022-10-19T04:41:43.048Z,100.00
2022-10-19T04:44:09.699Z,100.00
2022-10-19T04:46:37.278Z,100.00
2022-10-19T04:49:05.514Z,100.00
2022-10-19T04:51:32.344Z,100.00
2022-10-19T04:53:59.767Z,100.00
2022-10-19T04:56:29.061Z,100.00
2022-10-19T04:58:57.802Z,100.00
2022-10-19T05:01:26.501Z,100.00
2022-10-19T05:06:28.132Z,100.00
2022-10-19T05:08:54.920Z,100.00
2022-10-19T05:11:21.687Z,100.00
2022-10-19T05:13:49.436Z,100.00
2022-10-19T05:16:19.112Z,100.00
2022-10-19T05:18:59.475Z,100.00
2022-10-19T05:21:28.455Z,100.00
2022-10-19T05:23:56.462Z,100.00
2022-10-19T05:26:25.639Z,100.00
2022-10-19T05:28:59.434Z,100.00
2022-10-19T05:31:28.976Z,100.00
2022-10-19T05:33:56.297Z,100.00
2022-10-19T05:36:25.990Z,100.00
2022-10-19T05:38:54.311Z,100.00
2022-10-19T05:41:22.054Z,100.00
2022-10-19T05:43:53.230Z,100.00
2022-10-19T05:46:19.877Z,100.00
2022-10-19T05:48:47.211Z,100.00
2022-10-19T05:51:16.710Z,100.00
2022-10-19T05:53:43.324Z,100.00
2022-10-19T05:56:15.454Z,100.00
2022-10-19T05:58:42.314Z,100.00
2022-10-19T06:01:09.452Z,100.00
2022-10-19T06:03:36.125Z,100.00
2022-10-19T06:06:04.194Z,100.00
2022-10-19T06:08:31.398Z,100.00
2022-10-19T06:11:11.741Z,100.00
2022-10-19T06:13:39.384Z,100.00
2022-10-19T06:16:06.820Z,100.00
2022-10-19T06:18:33.487Z,100.00
2022-10-19T06:21:06.214Z,100.00
2022-10-19T06:23:34.130Z,100.00
2022-10-19T06:26:06.626Z,100.00
2022-10-19T06:28:33.423Z,100.00
2022-10-19T06:31:00.708Z,100.00
2022-10-19T06:33:27.867Z,100.00
2022-10-19T06:35:54.274Z,100.00
2022-10-19T06:38:21.067Z,100.00
2022-10-19T06:40:49.047Z,100.00
2022-10-19T06:43:15.569Z,100.00
2022-10-19T06:45:42.170Z,100.00
2022-10-19T06:48:08.598Z,100.00
2022-10-19T06:50:35.394Z,100.00
2022-10-19T06:53:01.801Z,100.00
2022-10-19T06:55:28.412Z,100.00
2022-10-19T06:57:55.036Z,100.00
2022-10-19T07:00:21.431Z,100.00
2022-10-19T07:02:48.071Z,100.00
2022-10-19T07:05:14.559Z,100.00
2022-10-19T07:07:41.256Z,100.00
2022-10-19T07:10:07.998Z,100.00
2022-10-19T07:12:34.383Z,100.00
2022-10-19T07:15:00.815Z,100.00
2022-10-19T07:17:27.212Z,100.00
2022-10-19T07:19:53.689Z,100.00
2022-10-19T07:22:27.202Z,100.00
2022-10-19T07:24:54.598Z,100.00
2022-10-19T07:27:21.041Z,100.00
2022-10-19T07:29:47.387Z,100.00
2022-10-19T07:32:13.748Z,100.00
2022-10-19T07:34:40.139Z,100.00
2022-10-19T07:37:07.127Z,100.00
2022-10-19T07:39:33.518Z,100.00
2022-10-19T07:41:59.923Z,100.00
2022-10-19T07:44:26.630Z,100.00
2022-10-19T07:46:53.448Z,100.00
2022-10-19T07:49:20.959Z,100.00
2022-10-19T07:51:47.452Z,100.00
2022-10-19T07:54:14.179Z,100.00
2022-10-19T07:56:41.325Z,100.00
2022-10-19T07:59:07.758Z,100.00
2022-10-19T08:01:41.434Z,100.00
2022-10-19T08:06:55.455Z,100.00
2022-10-19T08:09:51.427Z,100.00
2022-10-19T08:12:13.867Z,100.00
2022-10-19T08:14:41.456Z,100.00
2022-10-19T08:17:12.135Z,100.00
2022-10-19T08:19:43.017Z,100.00
2022-10-19T08:22:10.615Z,100.00
2022-10-19T08:24:37.018Z,100.00
2022-10-19T08:27:03.674Z,100.00
2022-10-19T08:29:31.545Z,100.00
2022-10-19T08:31:58.600Z,100.00
2022-10-19T08:34:25.728Z,100.00
2022-10-19T08:36:52.643Z,100.00
2022-10-19T08:39:19.859Z,100.00
2022-10-19T08:42:08.502Z,100.00
2022-10-19T08:45:09.263Z,100.00
2022-10-19T08:47:51.932Z,100.00
2022-10-19T08:50:22.311Z,100.00
2022-10-19T08:53:02.206Z,100.00
2022-10-19T08:55:41.579Z,100.00
2022-10-19T08:58:20.440Z,100.00
2022-10-19T09:01:06.886Z,100.00
2022-10-19T09:04:00.791Z,100.00
2022-10-19T09:06:35.036Z,100.00
2022-10-19T09:09:01.753Z,100.00
2022-10-19T09:11:34.107Z,100.00
2022-10-19T09:14:11.028Z,100.00
2022-10-19T09:16:37.779Z,100.00
2022-10-19T09:19:17.797Z,100.00
2022-10-19T09:22:06.237Z,100.00
2022-10-19T09:24:47.081Z,100.00
2022-10-19T09:27:22.867Z,100.00
2022-10-19T09:30:04.412Z,100.00
2022-10-19T09:32:35.133Z,100.00
2022-10-19T09:35:17.369Z,100.00
2022-10-19T09:37:48.448Z,100.00
2022-10-19T09:40:23.067Z,100.00
2022-10-19T09:42:56.861Z,100.00
2022-10-19T09:45:45.100Z,100.00
2022-10-19T09:48:26.429Z,100.00
2022-10-19T09:51:01.378Z,100.00
2022-10-19T09:53:29.123Z,100.00
2022-10-19T09:56:07.792Z,100.00
2022-10-19T09:58:35.458Z,100.00
2022-10-19T10:01:03.277Z,100.00
2022-10-19T10:03:33.321Z,100.00
2022-10-19T10:06:05.596Z,100.00
2022-10-19T10:08:36.602Z,100.00
2022-10-19T10:11:16.217Z,100.00
2022-10-19T10:13:51.090Z,100.00
2022-10-19T10:16:20.302Z,100.00
2022-10-19T10:19:20.791Z,100.00
2022-10-19T10:21:51.033Z,100.00
2022-10-19T10:24:19.680Z,100.00
2022-10-19T10:26:47.931Z,100.00
2022-10-19T10:29:27.440Z,100.00
2022-10-19T10:31:59.011Z,100.00
2022-10-19T10:34:53.069Z,100.00
2022-10-19T10:37:43.307Z,100.00
2022-10-19T10:40:30.592Z,100.00
2022-10-19T10:43:27.565Z,100.00
2022-10-19T10:45:54.592Z,100.00
2022-10-19T10:48:30.212Z,100.00
2022-10-19T10:50:59.760Z,100.00
2022-10-19T10:53:39.404Z,100.00
2022-10-19T10:56:21.632Z,100.00
2022-10-19T10:58:58.503Z,100.00
2022-10-19T11:01:29.630Z,100.00
2022-10-19T11:04:03.822Z,100.00
2022-10-19T11:06:34.421Z,100.00
2022-10-19T11:09:21.925Z,100.00
2022-10-19T11:11:50.877Z,100.00
2022-10-19T11:15:00.658Z,100.00
2022-10-19T11:17:33.092Z,100.00
2022-10-19T11:20:00.410Z,100.00
2022-10-19T11:22:38.350Z,100.00
2022-10-19T11:25:22.662Z,100.00
2022-10-19T11:28:22.045Z,100.00
2022-10-19T11:31:10.670Z,100.00
2022-10-19T11:33:56.081Z,100.00
2022-10-19T11:36:59.006Z,100.00
2022-10-19T11:39:47.543Z,100.00
2022-10-19T11:42:35.063Z,100.00
2022-10-19T11:45:37.106Z,100.00
2022-10-19T11:48:43.805Z,100.00
2022-10-19T11:51:34.245Z,100.00
2022-10-19T11:54:22.806Z,100.00
2022-10-19T11:57:06.335Z,100.00
2022-10-19T12:00:39.731Z,100.00
2022-10-19T12:03:16.268Z,100.00
2022-10-19T12:06:09.245Z,100.00
2022-10-19T12:09:11.049Z,100.00
2022-10-19T12:12:02.850Z,100.00
2022-10-19T12:14:36.572Z,100.00
2022-10-19T12:17:10.778Z,100.00
2022-10-19T12:19:46.431Z,100.00
2022-10-19T12:22:23.998Z,100.00
2022-10-19T12:24:53.106Z,100.00
2022-10-19T12:27:35.096Z,100.00
2022-10-19T12:30:13.273Z,99.94
2022-10-19T12:33:09.221Z,95.29
2022-10-19T12:36:00.581Z,97.06
2022-10-19T12:38:30.315Z,99.40
2022-10-19T12:41:05.860Z,95.60
2022-10-19T12:43:44.567Z,92.68
2022-10-19T12:46:23.703Z,88.89
2022-10-19T12:49:27.891Z,88.20
2022-10-19T12:51:56.554Z,85.73
2022-10-19T12:54:28.984Z,87.11
2022-10-19T12:56:58.346Z,84.83
2022-10-19T12:59:33.930Z,84.82
2022-10-19T13:02:02.418Z,83.95
2022-10-19T13:04:31.215Z,84.12
2022-10-19T13:06:57.863Z,82.30
2022-10-19T13:09:24.407Z,85.81
2022-10-19T13:12:19.861Z,84.14
2022-10-19T13:15:00.590Z,83.26
2022-10-19T13:17:36.811Z,82.20
2022-10-19T13:20:15.451Z,80.02
2022-10-19T13:23:01.474Z,80.28
2022-10-19T13:25:29.184Z,78.26
2022-10-19T13:28:07.947Z,75.65
2022-10-19T13:30:41.941Z,76.77
2022-10-19T13:33:30.174Z,74.83
2022-10-19T13:35:59.884Z,75.83
2022-10-19T13:38:33.655Z,71.65
2022-10-19T13:41:23.996Z,72.09
2022-10-19T13:44:04.741Z,68.99
2022-10-19T13:46:31.280Z,73.18
2022-10-19T13:49:39.427Z,70.33
2022-10-19T13:52:37.670Z,66.86
2022-10-19T13:55:22.914Z,65.19
2022-10-19T13:58:35.373Z,63.88
2022-10-19T14:01:42.929Z,64.55
2022-10-19T14:04:28.987Z,66.18
2022-10-19T14:07:15.464Z,63.88
2022-10-19T14:10:02.673Z,63.77
2022-10-19T14:12:31.072Z,64.78
2022-10-19T14:14:58.114Z,62.55
2022-10-19T14:17:29.908Z,63.69
2022-10-19T14:19:57.878Z,64.25
2022-10-19T14:22:30.047Z,68.50
2022-10-19T14:25:02.524Z,68.28
2022-10-19T14:27:30.734Z,67.72
2022-10-19T14:29:57.844Z,68.27
2022-10-19T14:32:27.955Z,68.71
2022-10-19T14:35:00.219Z,65.86
2022-10-19T14:37:27.363Z,69.62
2022-10-19T14:40:03.281Z,70.03
2022-10-19T14:42:42.119Z,74.63
2022-10-19T14:45:26.817Z,73.70
2022-10-19T14:48:02.340Z,78.85
2022-10-19T14:50:52.987Z,79.18
2022-10-19T14:53:19.447Z,80.92
2022-10-19T14:55:47.398Z,82.87
2022-10-19T14:58:23.133Z,85.68
2022-10-19T15:00:51.237Z,88.71
2022-10-19T15:03:25.358Z,91.32
2022-10-19T15:05:56.463Z,90.77
2022-10-19T15:08:37.582Z,92.65
2022-10-19T15:11:06.923Z,97.82
2022-10-19T15:13:40.893Z,99.54
2022-10-19T15:16:31.502Z,100.00
2022-10-19T15:19:04.251Z,100.00
2022-10-19T15:21:33.389Z,100.00
2022-10-19T15:24:15.454Z,100.00
2022-10-19T15:27:01.785Z,100.00
2022-10-19T15:29:33.285Z,100.00
2022-10-19T15:32:14.138Z,100.00
2022-10-19T15:34:42.594Z,100.00
2022-10-19T15:37:18.414Z,100.00
2022-10-19T15:39:45.829Z,100.00
2022-10-19T15:42:38.120Z,100.00
2022-10-19T15:45:32.634Z,100.00
2022-10-19T15:48:28.210Z,100.00
2022-10-19T15:50:57.237Z,100.00
2022-10-19T15:53:25.173Z,100.00
2022-10-19T15:55:51.585Z,100.00
2022-10-19T15:58:18.551Z,100.00
2022-10-19T16:00:45.288Z,100.00
2022-10-19T16:03:11.891Z,100.00
2022-10-19T16:05:38.480Z,100.00
2022-10-19T16:08:08.881Z,100.00
2022-10-19T16:10:38.656Z,100.00
2022-10-19T16:13:05.051Z,100.00
2022-10-19T16:15:31.427Z,100.00
2022-10-19T16:18:00.952Z,100.00
2022-10-19T16:20:29.123Z,100.00
2022-10-19T16:22:56.519Z,100.00
2022-10-19T16:25:23.450Z,100.00
2022-10-19T16:27:49.943Z,100.00
2022-10-19T16:30:16.659Z,100.00
2022-10-19T16:32:43.093Z,100.00
2022-10-19T16:35:10.060Z,100.00
2022-10-19T16:37:37.172Z,100.00
2022-10-19T16:40:05.174Z,100.00
2022-10-19T16:42:32.377Z,100.00
2022-10-19T16:44:58.962Z,100.00
2022-10-19T16:47:25.400Z,100.00
2022-10-19T16:50:03.911Z,100.00
2022-10-19T16:52:32.796Z,100.00
2022-10-19T16:55:00.546Z,100.00
2022-10-19T16:57:27.062Z,100.00
2022-10-19T17:02:26.206Z,100.00
2022-10-19T17:04:53.360Z,100.00
2022-10-19T17:07:19.770Z,100.00
2022-10-19T17:09:47.855Z,100.00
2022-10-19T17:12:16.260Z,100.00
2022-10-19T17:14:43.279Z,100.00
2022-10-19T17:17:11.026Z,100.00
2022-10-19T17:19:38.289Z,100.00
2022-10-19T17:22:05.400Z,100.00
2022-10-19T17:24:32.304Z,100.00
2022-10-19T17:27:02.889Z,100.00
2022-10-19T17:29:30.038Z,100.00
2022-10-19T17:31:57.201Z,100.00
2022-10-19T17:34:23.813Z,100.00
2022-10-19T17:36:50.551Z,100.00
2022-10-19T17:39:25.601Z,100.00
2022-10-19T17:42:01.826Z,100.00
2022-10-19T17:44:30.739Z,100.00
2022-10-19T17:46:57.483Z,100.00
2022-10-19T17:49:24.123Z,100.00
2022-10-19T17:51:51.936Z,100.00
2022-10-19T17:54:18.372Z,100.00
2022-10-19T17:56:45.431Z,100.00
2022-10-19T17:59:12.674Z,100.00
2022-10-19T18:01:39.335Z,100.00
2022-10-19T18:04:06.433Z,100.00
2022-10-19T18:06:35.770Z,100.00
2022-10-19T18:09:06.083Z,100.00
2022-10-19T18:11:37.366Z,100.00
2022-10-19T18:14:04.839Z,100.00
2022-10-19T18:16:37.580Z,100.00
2022-10-19T18:19:04.800Z,100.00
2022-10-19T18:21:34.690Z,100.00
2022-10-19T18:24:02.486Z,100.00
2022-10-19T18:26:32.294Z,100.00
2022-10-19T18:29:00.581Z,100.00
2022-10-19T18:31:29.396Z,100.00
2022-10-19T18:34:04.218Z,100.00
2022-10-19T18:36:32.121Z,100.00
2022-10-19T18:39:01.562Z,100.00
2022-10-19T18:41:29.781Z,100.00
2022-10-19T18:44:03.099Z,100.00
2022-10-19T18:46:30.044Z,100.00
2022-10-19T18:48:56.832Z,100.00
2022-10-19T18:51:23.692Z,100.00
2022-10-19T18:53:50.551Z,100.00
2022-10-19T18:56:20.615Z,100.00
2022-10-19T18:58:48.336Z,100.00
2022-10-19T19:01:18.029Z,100.00
2022-10-19T19:03:47.011Z,100.00
2022-10-19T19:06:17.198Z,100.00
2022-10-19T19:11:20.480Z,100.00
2022-10-19T19:13:55.639Z,100.00
2022-10-19T19:16:23.374Z,100.00
2022-10-19T19:18:50.384Z,100.00
2022-10-19T19:21:21.361Z,100.00
2022-10-19T19:23:49.479Z,100.00
2022-10-19T19:26:17.318Z,100.00
2022-10-19T19:28:46.368Z,100.00
2022-10-19T19:31:15.928Z,100.00
2022-10-19T19:33:44.147Z,100.00
2022-10-19T19:36:13.076Z,100.00
2022-10-19T19:38:39.489Z,100.00
2022-10-19T19:41:07.704Z,100.00
2022-10-19T19:43:37.170Z,100.00
2022-10-19T19:46:12.374Z,100.00
2022-10-19T19:48:40.240Z,100.00
2022-10-19T19:51:12.700Z,100.00
2022-10-19T19:53:40.404Z,100.00
2022-10-19T19:56:09.039Z,100.00
2022-10-19T19:58:36.073Z,100.00
2022-10-19T20:01:17.454Z,100.00
2022-10-19T20:03:45.702Z,100.00
2022-10-19T20:06:14.185Z,100.00
2022-10-19T20:08:40.623Z,100.00
2022-10-19T20:11:10.874Z,100.00
2022-10-19T20:13:38.120Z,100.00
2022-10-19T20:16:13.616Z,100.00
2022-10-19T20:18:41.119Z,100.00
2022-10-19T20:21:07.610Z,100.00
2022-10-19T20:23:34.476Z,100.00
2022-10-19T20:26:01.371Z,100.00
2022-10-19T20:28:28.443Z,100.00
2022-10-19T20:31:09.079Z,100.00
2022-10-19T20:33:37.389Z,100.00
2022-10-19T20:36:09.947Z,100.00
2022-10-19T20:38:38.513Z,100.00
2022-10-19T20:41:08.054Z,100.00
2022-10-19T20:43:37.068Z,100.00
2022-10-19T20:46:20.960Z,100.00
2022-10-19T20:48:48.423Z,100.00
2022-10-19T20:51:17.447Z,100.00
2022-10-19T20:53:46.330Z,100.00
2022-10-19T20:56:15.046Z,100.00
2022-10-19T20:58:43.647Z,100.00
2022-10-19T21:01:13.997Z,100.00
2022-10-19T21:03:46.252Z,100.00
2022-10-19T21:06:12.960Z,100.00
2022-10-19T21:08:39.556Z,100.00
2022-10-19T21:11:17.338Z,100.00
2022-10-19T21:13:44.765Z,100.00
2022-10-19T21:16:16.112Z,100.00
2022-10-19T21:18:44.359Z,100.00
2022-10-19T21:21:18.887Z,100.00
2022-10-19T21:23:47.929Z,100.00
2022-10-19T21:26:14.448Z,100.00
2022-10-19T21:28:46.223Z,100.00
2022-10-19T21:31:12.667Z,100.00
2022-10-19T21:33:39.213Z,100.00
2022-10-19T21:36:07.049Z,100.00
2022-10-19T21:38:34.273Z,100.00
2022-10-19T21:41:05.385Z,100.00
2022-10-19T21:43:32.202Z,100.00
2022-10-19T21:46:05.541Z,100.00
2022-10-19T21:48:33.581Z,100.00
2022-10-19T21:51:00.639Z,100.00
2022-10-19T21:53:27.048Z,100.00
2022-10-19T21:55:53.842Z,100.00
2022-10-19T21:58:22.135Z,100.00
2022-10-19T22:00:49.158Z,100.00
2022-10-19T22:03:18.945Z,100.00
2022-10-19T22:05:52.513Z,100.00
2022-10-19T22:08:18.891Z,100.00
2022-10-19T22:10:45.278Z,100.00
2022-10-19T22:13:11.825Z,100.00
2022-10-19T22:15:39.798Z,100.00
2022-10-19T22:18:06.439Z,100.00
2022-10-19T22:20:36.109Z,100.00
2022-10-19T22:23:03.698Z,100.00
2022-10-19T22:25:30.887Z,100.00
2022-10-19T22:27:57.407Z,100.00
2022-10-19T22:30:24.078Z,100.00
2022-10-19T22:32:50.463Z,100.00
2022-10-19T22:35:17.353Z,100.00
2022-10-19T22:37:43.912Z,100.00
2022-10-19T22:40:10.820Z,100.00
2022-10-19T22:42:37.588Z,100.00
2022-10-19T22:45:04.875Z,100.00
2022-10-19T22:47:31.245Z,100.00
2022-10-19T22:49:57.605Z,100.00
2022-10-19T22:52:26.668Z,100.00
2022-10-19T22:54:53.563Z,100.00
2022-10-19T22:57:19.924Z,100.00
2022-10-19T22:59:46.740Z,100.00
2022-10-19T23:02:13.323Z,100.00
2022-10-19T23:04:39.715Z,100.00
2022-10-19T23:07:06.113Z,100.00
2022-10-19T23:09:32.716Z,100.00
2022-10-19T23:11:59.084Z,100.00
2022-10-19T23:14:25.595Z,100.00
2022-10-19T23:16:52.014Z,100.00
2022-10-19T23:19:18.601Z,100.00
2022-10-19T23:21:44.987Z,100.00
2022-10-19T23:24:11.347Z,100.00
2022-10-19T23:26:37.856Z,100.00
2022-10-19T23:29:04.260Z,100.00
2022-10-19T23:31:30.986Z,100.00
2022-10-19T23:33:57.406Z,100.00
2022-10-19T23:36:27.099Z,100.00
2022-10-19T23:38:56.426Z,100.00
2022-10-19T23:41:23.349Z,100.00
2022-10-19T23:43:49.984Z,100.00
2022-10-19T23:46:16.346Z,100.00
2022-10-19T23:48:43.024Z,100.00
2022-10-19T23:51:12.988Z,100.00
2022-10-19T23:53:41.674Z,100.00
2022-10-19T23:56:20.270Z,100.00
2022-10-19T23:58:47.745Z,100.00
